createdAt,value
2023-02-01T00:01:10.774Z,89.83
2023-02-01T00:03:38.483Z,89.61
2023-02-01T00:06:06.392Z,90.68
2023-02-01T00:08:33.967Z,89.51
2023-02-01T00:11:10.187Z,88.67
2023-02-01T00:13:40.522Z,89.13
2023-02-01T00:16:10.916Z,89.46
2023-02-01T00:18:38.219Z,90.71
2023-02-01T00:21:05.940Z,88.38
2023-02-01T00:23:36.035Z,86.79
2023-02-01T00:26:05.309Z,91.68
2023-02-01T00:28:33.071Z,90.07
2023-02-01T00:31:02.241Z,87.21
2023-02-01T00:33:30.656Z,87.32
2023-02-01T00:36:03.938Z,90.02
2023-02-01T00:38:32.198Z,88.82
2023-02-01T00:41:08.334Z,87.07
2023-02-01T00:43:35.866Z,87.05
2023-02-01T00:46:03.736Z,86.72
2023-02-01T00:48:31.334Z,88.89
2023-02-01T00:51:03.954Z,88.71
2023-02-01T00:53:31.594Z,88.18
2023-02-01T00:55:59.198Z,87.49
2023-02-01T00:58:27.134Z,88.77
2023-02-01T01:01:10.232Z,89.01
2023-02-01T01:03:40.113Z,88.21
2023-02-01T01:06:11.366Z,91.35
2023-02-01T01:08:40.145Z,89.00
2023-02-01T01:11:11.339Z,88.58
2023-02-01T01:13:39.249Z,88.67
2023-02-01T01:16:08.231Z,89.91
2023-02-01T01:18:36.575Z,90.22
2023-02-01T01:21:06.316Z,89.28
2023-02-01T01:23:34.503Z,89.87
2023-02-01T01:26:07.149Z,89.24
2023-02-01T01:28:35.309Z,91.20
2023-02-01T01:31:03.614Z,88.92
2023-02-01T01:33:30.953Z,89.67
2023-02-01T01:35:58.240Z,90.42
2023-02-01T01:38:25.552Z,90.81
2023-02-01T01:40:52.918Z,90.29
2023-02-01T01:43:21.317Z,89.27
2023-02-01T01:45:48.951Z,90.75
2023-02-01T01:48:29.094Z,90.45
2023-02-01T01:51:02.604Z,89.64
2023-02-01T01:53:43.302Z,89.43
2023-02-01T01:56:11.719Z,89.73
2023-02-01T01:58:39.220Z,91.95
2023-02-01T02:01:06.692Z,91.35
2023-02-01T02:03:43.418Z,91.66
2023-02-01T02:06:36.120Z,91.86
2023-02-01T02:09:06.919Z,93.93
2023-02-01T02:11:34.846Z,90.58
2023-02-01T02:14:03.454Z,90.91
2023-02-01T02:16:45.865Z,92.87
2023-02-01T02:19:55.091Z,92.00
2023-02-01T02:22:22.303Z,90.85
2023-02-01T02:24:58.262Z,91.30
2023-02-01T02:27:44.301Z,90.81
2023-02-01T02:30:20.974Z,91.21
2023-02-01T02:33:32.943Z,90.77
2023-02-01T02:36:00.463Z,90.68
2023-02-01T02:38:40.247Z,91.30
2023-02-01T02:41:35.999Z,91.34
2023-02-01T02:44:10.525Z,92.28
2023-02-01T02:46:41.984Z,92.39
2023-02-01T02:49:35.592Z,92.22
2023-02-01T02:52:13.991Z,92.72
2023-02-01T02:54:46.852Z,92.19
2023-02-01T02:57:19.435Z,92.13
2023-02-01T02:59:48.846Z,92.92
2023-02-01T03:02:17.124Z,92.00
2023-02-01T03:04:44.639Z,92.58
2023-02-01T03:07:36.035Z,92.84
2023-02-01T03:10:12.208Z,94.26
2023-02-01T03:12:43.150Z,93.31
2023-02-01T03:15:13.280Z,93.52
2023-02-01T03:17:44.264Z,94.10
2023-02-01T03:20:15.312Z,92.86
2023-02-01T03:22:44.877Z,93.40
2023-02-01T03:25:20.148Z,93.48
2023-02-01T03:28:04.771Z,94.42
2023-02-01T03:30:45.146Z,94.48
2023-02-01T03:33:24.210Z,93.90
2023-02-01T03:35:51.416Z,93.69
2023-02-01T03:38:21.629Z,94.53
2023-02-01T03:40:57.483Z,92.55
2023-02-01T03:43:28.761Z,93.49
2023-02-01T03:46:02.393Z,93.26
2023-02-01T03:48:30.844Z,95.06
2023-02-01T03:51:01.412Z,93.92
2023-02-01T03:53:29.505Z,93.73
2023-02-01T03:55:58.132Z,93.65
2023-02-01T03:58:25.351Z,93.79
2023-02-01T04:00:57.134Z,93.70
2023-02-01T04:03:25.506Z,93.30
2023-02-01T04:05:54.027Z,93.12
2023-02-01T04:08:22.244Z,98.21
2023-02-01T04:10:49.753Z,93.07
2023-02-01T04:13:17.120Z,92.99
2023-02-01T04:15:44.378Z,92.93
2023-02-01T04:18:11.648Z,99.16
2023-02-01T04:20:39.500Z,94.15
2023-02-01T04:23:06.772Z,93.24
2023-02-01T04:25:34.477Z,92.86
2023-02-01T04:28:01.696Z,93.03
2023-02-01T04:30:29.038Z,94.33
2023-02-01T04:32:56.638Z,86.89
2023-02-01T04:35:23.872Z,75.54
2023-02-01T04:37:51.127Z,75.38
2023-02-01T04:40:18.435Z,77.99
2023-02-01T04:42:45.806Z,79.19
2023-02-01T04:45:13.051Z,79.19
2023-02-01T04:47:40.261Z,75.79
2023-02-01T04:50:07.960Z,75.38
2023-02-01T04:52:35.180Z,79.93
2023-02-01T04:55:02.703Z,79.74
2023-02-01T04:57:30.143Z,82.84
2023-02-01T05:00:10.174Z,84.44
2023-02-01T05:02:37.553Z,81.99
2023-02-01T05:05:05.858Z,88.87
2023-02-01T05:07:33.510Z,91.59
2023-02-01T05:10:01.276Z,95.66
2023-02-01T05:12:29.148Z,98.01
2023-02-01T05:14:59.577Z,97.46
2023-02-01T05:17:27.703Z,99.23
2023-02-01T05:19:55.606Z,98.73
2023-02-01T05:22:23.499Z,99.45
2023-02-01T05:25:08.213Z,100.00
2023-02-01T05:27:38.790Z,100.00
2023-02-01T05:30:07.633Z,100.00
2023-02-01T05:32:37.393Z,100.00
2023-02-01T05:35:12.231Z,100.00
2023-02-01T05:37:42.759Z,100.00
2023-02-01T05:40:14.572Z,100.00
2023-02-01T05:42:47.084Z,100.00
2023-02-01T05:45:14.307Z,100.00
2023-02-01T05:47:44.172Z,100.00
2023-02-01T05:50:17.588Z,100.00
2023-02-01T05:52:50.121Z,100.00
2023-02-01T05:55:23.236Z,100.00
2023-02-01T05:57:53.181Z,100.00
2023-02-01T06:00:24.127Z,100.00
2023-02-01T06:02:55.535Z,100.00
2023-02-01T06:05:35.502Z,100.00
2023-02-01T06:08:06.653Z,100.00
2023-02-01T06:10:40.042Z,100.00
2023-02-01T06:13:11.390Z,100.00
2023-02-01T06:15:47.673Z,100.00
2023-02-01T06:18:17.947Z,100.00
2023-02-01T06:20:45.467Z,100.00
2023-02-01T06:23:13.365Z,98.59
2023-02-01T06:25:59.724Z,100.00
2023-02-01T06:28:31.561Z,97.73
2023-02-01T06:31:06.725Z,100.00
2023-02-01T06:33:42.790Z,100.00
2023-02-01T06:36:11.889Z,100.00
2023-02-01T06:38:39.761Z,97.91
2023-02-01T06:41:07.586Z,99.01
2023-02-01T06:43:34.923Z,97.37
2023-02-01T06:46:04.168Z,94.86
2023-02-01T06:48:31.685Z,90.02
2023-02-01T06:50:59.246Z,88.39
2023-02-01T06:53:26.715Z,83.59
2023-02-01T06:55:55.946Z,82.84
2023-02-01T06:58:23.693Z,78.78
2023-02-01T07:00:51.282Z,76.57
2023-02-01T07:03:21.297Z,78.20
2023-02-01T07:05:48.537Z,74.46
2023-02-01T07:08:17.409Z,72.55
2023-02-01T07:10:44.783Z,71.54
2023-02-01T07:13:12.054Z,69.09
2023-02-01T07:15:41.552Z,72.40
2023-02-01T07:18:08.762Z,72.87
2023-02-01T07:20:35.951Z,71.14
2023-02-01T07:23:03.190Z,74.97
2023-02-01T07:25:30.425Z,73.16
2023-02-01T07:27:58.504Z,72.71
2023-02-01T07:30:25.848Z,73.25
2023-02-01T07:32:53.232Z,73.38
2023-02-01T07:35:20.813Z,72.93
2023-02-01T07:37:48.093Z,73.28
2023-02-01T07:40:15.416Z,74.03
2023-02-01T07:42:42.748Z,74.29
2023-02-01T07:45:20.979Z,77.79
2023-02-01T07:47:49.535Z,75.18
2023-02-01T07:50:17.118Z,74.00
2023-02-01T07:52:44.616Z,69.42
2023-02-01T07:55:11.909Z,77.05
2023-02-01T07:57:39.219Z,69.56
2023-02-01T08:00:08.018Z,68.91
2023-02-01T08:02:35.427Z,68.55
2023-02-01T08:05:02.990Z,73.22
2023-02-01T08:07:30.300Z,67.83
2023-02-01T08:09:57.521Z,70.38
2023-02-01T08:12:26.425Z,67.72
2023-02-01T08:14:54.234Z,71.60
2023-02-01T08:17:21.449Z,69.27
2023-02-01T08:19:48.689Z,68.24
2023-02-01T08:22:15.973Z,66.71
2023-02-01T08:24:43.822Z,71.87
2023-02-01T08:27:11.360Z,66.11
2023-02-01T08:29:39.132Z,64.30
2023-02-01T08:32:06.701Z,64.74
2023-02-01T08:34:35.769Z,65.95
2023-02-01T08:37:03.181Z,61.00
2023-02-01T08:39:30.442Z,60.39
2023-02-01T08:41:57.914Z,63.43
2023-02-01T08:44:26.211Z,67.85
2023-02-01T08:46:53.452Z,64.49
2023-02-01T08:49:20.714Z,64.40
2023-02-01T08:51:48.152Z,65.22
2023-02-01T08:54:15.449Z,64.78
2023-02-01T08:56:42.688Z,68.21
2023-02-01T08:59:10.000Z,64.80
2023-02-01T09:01:37.250Z,64.57
2023-02-01T09:04:04.612Z,68.73
2023-02-01T09:06:31.868Z,70.69
2023-02-01T09:08:59.123Z,65.15
2023-02-01T09:11:26.361Z,64.59
2023-02-01T09:13:53.676Z,71.01
2023-02-01T09:16:21.089Z,66.84
2023-02-01T09:18:56.153Z,66.68
2023-02-01T09:21:35.745Z,66.65
2023-02-01T09:24:03.104Z,71.04
2023-02-01T09:26:32.518Z,71.35
2023-02-01T09:29:01.536Z,65.95
2023-02-01T09:31:29.845Z,65.41
2023-02-01T09:33:57.448Z,67.47
2023-02-01T09:36:24.788Z,70.29
2023-02-01T09:38:53.153Z,63.23
2023-02-01T09:41:43.959Z,62.94
2023-02-01T09:44:42.423Z,67.85
2023-02-01T09:47:14.234Z,64.27
2023-02-01T09:49:51.616Z,62.53
2023-02-01T09:52:26.127Z,61.61
2023-02-01T09:55:12.698Z,63.78
2023-02-01T09:57:59.286Z,62.88
2023-02-01T10:00:31.220Z,61.70
2023-02-01T10:02:58.673Z,61.94
2023-02-01T10:05:49.509Z,65.71
2023-02-01T10:08:23.721Z,63.07
2023-02-01T10:10:51.329Z,62.91
2023-02-01T10:13:33.891Z,63.12
2023-02-01T10:16:07.734Z,69.01
2023-02-01T10:18:41.033Z,61.99
2023-02-01T10:21:33.557Z,63.13
2023-02-01T10:24:25.661Z,67.30
2023-02-01T10:27:17.829Z,66.66
2023-02-01T10:29:51.087Z,66.15
2023-02-01T10:32:24.347Z,67.60
2023-02-01T10:35:09.907Z,73.72
2023-02-01T10:37:37.294Z,69.61
2023-02-01T10:40:16.724Z,69.07
2023-02-01T10:42:44.942Z,69.08
2023-02-01T10:45:18.877Z,64.48
2023-02-01T10:47:47.461Z,65.90
2023-02-01T10:50:23.797Z,64.76
2023-02-01T10:52:58.169Z,64.32
2023-02-01T10:55:29.902Z,64.11
2023-02-01T10:58:01.682Z,61.74
2023-02-01T11:00:35.483Z,59.88
2023-02-01T11:03:43.588Z,60.53
2023-02-01T11:06:23.138Z,62.27
2023-02-01T11:08:53.738Z,61.64
2023-02-01T11:11:22.127Z,60.60
2023-02-01T11:13:56.021Z,60.47
2023-02-01T11:16:30.819Z,65.66
2023-02-01T11:18:59.277Z,60.77
2023-02-01T11:21:27.010Z,59.75
2023-02-01T11:23:54.665Z,63.96
2023-02-01T11:26:27.140Z,62.71
2023-02-01T11:29:03.873Z,58.28
2023-02-01T11:31:33.537Z,58.74
2023-02-01T11:34:08.564Z,62.05
2023-02-01T11:36:37.809Z,61.46
2023-02-01T11:39:15.884Z,57.09
2023-02-01T11:41:44.347Z,55.77
2023-02-01T11:44:38.393Z,60.21
2023-02-01T11:47:22.894Z,56.93
2023-02-01T11:49:52.927Z,56.04
2023-02-01T11:52:38.964Z,55.03
2023-02-01T11:55:15.605Z,59.07
2023-02-01T11:58:07.450Z,54.81
2023-02-01T12:00:40.398Z,54.55
2023-02-01T12:03:50.341Z,54.48
2023-02-01T12:06:28.981Z,57.86
2023-02-01T12:09:05.320Z,53.80
2023-02-01T12:11:54.073Z,53.46
2023-02-01T12:14:42.484Z,53.17
2023-02-01T12:17:12.906Z,58.20
2023-02-01T12:19:56.149Z,52.88
2023-02-01T12:22:54.864Z,54.02
2023-02-01T12:25:31.923Z,55.71
2023-02-01T12:28:31.351Z,52.22
2023-02-01T12:31:21.035Z,51.79
2023-02-01T12:34:27.439Z,52.79
2023-02-01T12:37:17.377Z,53.94
2023-02-01T12:40:25.623Z,51.78
2023-02-01T12:43:05.324Z,51.82
2023-02-01T12:45:56.834Z,55.38
2023-02-01T12:48:29.140Z,52.05
2023-02-01T12:51:05.528Z,51.85
2023-02-01T12:53:51.524Z,52.73
2023-02-01T12:56:32.507Z,51.90
2023-02-01T12:59:05.155Z,53.45
2023-02-01T13:01:48.509Z,54.46
2023-02-01T13:04:21.136Z,54.21
2023-02-01T13:07:21.937Z,56.75
2023-02-01T13:09:58.130Z,52.14
2023-02-01T13:12:41.205Z,53.16
2023-02-01T13:15:14.636Z,52.46
2023-02-01T13:17:44.494Z,51.14
2023-02-01T13:20:22.754Z,51.82
2023-02-01T13:23:00.229Z,51.84
2023-02-01T13:25:34.652Z,55.40
2023-02-01T13:28:07.941Z,53.14
2023-02-01T13:31:01.511Z,52.29
2023-02-01T13:33:54.124Z,52.57
2023-02-01T13:36:23.094Z,53.49
2023-02-01T13:39:05.766Z,51.14
2023-02-01T13:42:04.635Z,50.23
2023-02-01T13:45:00.711Z,54.59
2023-02-01T13:47:28.010Z,49.57
2023-02-01T13:49:59.194Z,50.56
2023-02-01T13:52:31.124Z,50.16
2023-02-01T13:55:29.576Z,50.10
2023-02-01T13:58:20.290Z,52.02
2023-02-01T14:00:49.890Z,52.65
2023-02-01T14:03:21.653Z,52.53
2023-02-01T14:05:52.280Z,53.76
2023-02-01T14:08:41.028Z,54.31
2023-02-01T14:11:48.383Z,55.65
2023-02-01T14:14:16.070Z,56.03
2023-02-01T14:16:44.694Z,58.01
2023-02-01T14:19:21.264Z,54.43
2023-02-01T14:21:54.201Z,53.74
2023-02-01T14:24:32.050Z,53.54
2023-02-01T14:27:18.215Z,55.10
2023-02-01T14:29:53.584Z,54.69
2023-02-01T14:32:23.434Z,53.59
2023-02-01T14:34:54.091Z,56.12
2023-02-01T14:37:22.092Z,53.47
2023-02-01T14:39:56.062Z,53.79
2023-02-01T14:42:28.637Z,53.58
2023-02-01T14:45:17.208Z,57.06
2023-02-01T14:47:44.582Z,57.03
2023-02-01T14:50:19.554Z,53.50
2023-02-01T14:52:48.523Z,52.94
2023-02-01T14:55:26.172Z,55.33
2023-02-01T14:57:58.656Z,56.65
2023-02-01T15:00:29.898Z,56.34
2023-02-01T15:03:24.513Z,63.04
2023-02-01T15:06:01.274Z,56.02
2023-02-01T15:08:38.996Z,54.36
2023-02-01T15:11:16.416Z,53.22
2023-02-01T15:13:53.822Z,57.22
2023-02-01T15:16:23.027Z,55.58
2023-02-01T15:18:50.941Z,55.36
2023-02-01T15:21:29.813Z,55.17
2023-02-01T15:24:19.822Z,54.71
2023-02-01T15:26:47.503Z,56.11
2023-02-01T15:29:15.624Z,55.64
2023-02-01T15:31:48.816Z,56.21
2023-02-01T15:34:16.435Z,54.75
2023-02-01T15:36:56.909Z,56.41
2023-02-01T15:39:29.807Z,57.95
2023-02-01T15:41:58.985Z,57.69
2023-02-01T15:44:33.643Z,61.62
2023-02-01T15:47:08.642Z,67.81
2023-02-01T15:49:42.664Z,59.87
2023-02-01T15:52:21.802Z,59.77
2023-02-01T15:54:52.970Z,59.50
2023-02-01T15:57:25.690Z,63.03
2023-02-01T15:59:54.142Z,60.57
2023-02-01T16:02:41.980Z,60.86
2023-02-01T16:05:37.283Z,66.36
2023-02-01T16:08:17.573Z,63.93
2023-02-01T16:10:47.908Z,61.07
2023-02-01T16:13:16.737Z,62.66
2023-02-01T16:15:44.608Z,62.63
2023-02-01T16:18:13.201Z,61.99
2023-02-01T16:20:42.421Z,61.85
2023-02-01T16:23:10.843Z,61.72
2023-02-01T16:25:39.118Z,61.27
2023-02-01T16:28:06.521Z,61.59
2023-02-01T16:30:34.326Z,62.39
2023-02-01T16:33:02.969Z,63.50
2023-02-01T16:35:36.585Z,63.77
2023-02-01T16:38:12.720Z,63.04
2023-02-01T16:40:41.084Z,62.76
2023-02-01T16:43:32.524Z,63.82
2023-02-01T16:46:01.984Z,63.97
2023-02-01T16:48:32.251Z,64.21
2023-02-01T16:51:02.610Z,64.64
2023-02-01T16:53:36.520Z,64.48
2023-02-01T16:56:17.561Z,69.55
2023-02-01T16:58:45.575Z,66.81
2023-02-01T17:01:15.130Z,67.38
2023-02-01T17:03:42.839Z,66.80
2023-02-01T17:06:12.279Z,69.00
2023-02-01T17:08:43.281Z,67.62
2023-02-01T17:11:12.701Z,66.55
2023-02-01T17:13:41.409Z,67.10
2023-02-01T17:16:23.665Z,69.15
2023-02-01T17:18:57.577Z,69.27
2023-02-01T17:21:28.594Z,68.35
2023-02-01T17:23:56.323Z,69.89
2023-02-01T17:26:23.680Z,72.75
2023-02-01T17:28:51.339Z,70.15
2023-02-01T17:31:18.814Z,70.76
2023-02-01T17:33:46.259Z,69.68
2023-02-01T17:36:16.674Z,70.87
2023-02-01T17:38:50.843Z,71.02
2023-02-01T17:41:21.256Z,69.57
2023-02-01T17:43:50.535Z,70.00
2023-02-01T17:46:18.232Z,72.58
2023-02-01T17:48:45.717Z,71.64
2023-02-01T17:51:18.420Z,70.52
2023-02-01T17:53:46.709Z,70.76
2023-02-01T17:56:22.445Z,74.33
2023-02-01T17:58:49.989Z,72.91
2023-02-01T18:01:24.300Z,72.35
2023-02-01T18:04:13.167Z,72.44
2023-02-01T18:06:58.391Z,75.56
2023-02-01T18:09:43.584Z,72.20
2023-02-01T18:12:28.744Z,72.56
2023-02-01T18:15:23.587Z,73.47
2023-02-01T18:18:08.959Z,75.02
2023-02-01T18:20:53.694Z,73.55
2023-02-01T18:23:38.739Z,80.12
2023-02-01T18:26:23.840Z,78.41
2023-02-01T18:29:10.106Z,73.88
2023-02-01T18:31:55.200Z,73.85
2023-02-01T18:34:40.499Z,73.79
2023-02-01T18:37:25.574Z,77.43
2023-02-01T18:40:19.828Z,73.81
2023-02-01T18:43:05.209Z,73.02
2023-02-01T18:45:51.142Z,72.17
2023-02-01T18:48:36.819Z,82.64
2023-02-01T18:51:22.560Z,73.90
2023-02-01T18:54:09.845Z,74.20
2023-02-01T18:56:58.447Z,77.01
2023-02-01T18:59:43.325Z,75.66
2023-02-01T19:02:31.000Z,75.39
2023-02-01T19:05:16.526Z,75.39
2023-02-01T19:08:01.511Z,76.44
2023-02-01T19:10:46.784Z,73.76
2023-02-01T19:13:32.101Z,74.56
2023-02-01T19:16:18.241Z,75.92
2023-02-01T19:19:03.221Z,76.00
2023-02-01T19:21:48.277Z,74.79
2023-02-01T19:24:33.480Z,75.50
2023-02-01T19:27:19.155Z,76.67
2023-02-01T19:30:05.234Z,77.07
2023-02-01T19:32:51.461Z,76.51
2023-02-01T19:35:36.984Z,77.87
2023-02-01T19:38:22.241Z,79.28
2023-02-01T19:41:07.110Z,75.76
2023-02-01T19:43:52.328Z,76.27
2023-02-01T19:46:37.177Z,76.79
2023-02-01T19:49:23.300Z,77.63
2023-02-01T19:52:08.754Z,77.99
2023-02-01T19:54:53.929Z,78.07
2023-02-01T19:57:38.993Z,78.15
2023-02-01T20:00:23.406Z,78.15
2023-02-01T20:03:08.801Z,79.22
2023-02-01T20:05:55.596Z,79.07
2023-02-01T20:08:40.577Z,77.86
2023-02-01T20:11:26.891Z,78.68
2023-02-01T20:14:12.589Z,78.05
2023-02-01T20:16:57.596Z,77.38
2023-02-01T20:19:42.587Z,78.18
2023-02-01T20:22:27.491Z,77.36
2023-02-01T20:25:12.544Z,77.36
2023-02-01T20:27:58.344Z,77.79
2023-02-01T20:30:45.299Z,78.56
2023-02-01T20:33:30.694Z,79.21
2023-02-01T20:36:15.966Z,81.91
2023-02-01T20:39:01.248Z,79.62
2023-02-01T20:41:46.255Z,79.38
2023-02-01T20:44:31.748Z,79.09
2023-02-01T20:47:16.712Z,80.23
2023-02-01T20:50:01.540Z,78.32
2023-02-01T20:52:46.663Z,78.41
2023-02-01T20:55:31.711Z,77.96
2023-02-01T20:58:16.752Z,86.57
2023-02-01T21:01:02.089Z,78.09
2023-02-01T21:03:47.356Z,77.06
2023-02-01T21:06:32.136Z,79.99
2023-02-01T21:09:17.260Z,80.35
2023-02-01T21:12:02.357Z,78.20
2023-02-01T21:14:47.569Z,77.93
2023-02-01T21:17:32.829Z,79.60
2023-02-01T21:20:18.584Z,78.68
2023-02-01T21:23:03.966Z,77.92
2023-02-01T21:25:49.252Z,77.71
2023-02-01T21:28:34.615Z,84.45
2023-02-01T21:31:20.344Z,78.89
2023-02-01T21:34:05.591Z,79.63
2023-02-01T21:36:50.876Z,84.78
2023-02-01T21:39:36.047Z,79.01
2023-02-01T21:42:21.106Z,80.00
2023-02-01T21:45:06.847Z,79.44
2023-02-01T21:47:52.156Z,82.52
2023-02-01T21:50:37.226Z,80.65
2023-02-01T21:53:22.299Z,81.66
2023-02-01T21:56:07.508Z,83.47
2023-02-01T21:58:52.724Z,85.41
2023-02-01T22:01:39.205Z,82.38
2023-02-01T22:04:24.301Z,82.95
2023-02-01T22:07:09.998Z,91.83
2023-02-01T22:09:55.423Z,83.75
2023-02-01T22:12:40.337Z,83.01
2023-02-01T22:15:26.012Z,84.18
2023-02-01T22:18:11.087Z,85.63
2023-02-01T22:21:00.188Z,83.78
2023-02-01T22:23:45.519Z,84.41
2023-02-01T22:26:30.531Z,90.55
2023-02-01T22:29:16.044Z,84.01
2023-02-01T22:32:01.599Z,83.78
2023-02-01T22:34:46.960Z,83.39
2023-02-01T22:37:32.270Z,87.68
2023-02-01T22:40:17.885Z,83.13
2023-02-01T22:43:03.135Z,83.14
2023-02-01T22:45:48.218Z,83.33
2023-02-01T22:48:38.855Z,88.95
2023-02-01T22:51:26.949Z,85.04
2023-02-01T22:54:17.751Z,85.50
2023-02-01T22:57:03.251Z,92.71
2023-02-01T22:59:48.347Z,86.47
2023-02-01T23:02:33.621Z,85.83
2023-02-01T23:05:19.875Z,84.79
2023-02-01T23:08:05.237Z,86.70
2023-02-01T23:10:50.673Z,85.88
2023-02-01T23:13:36.976Z,87.03
2023-02-01T23:16:22.154Z,91.57
2023-02-01T23:19:07.968Z,87.34
2023-02-01T23:21:53.109Z,87.95
2023-02-01T23:24:38.242Z,88.28
2023-02-01T23:27:23.451Z,94.41
2023-02-01T23:30:09.945Z,88.56
2023-02-01T23:32:54.974Z,88.16
2023-02-01T23:35:39.973Z,89.12
2023-02-01T23:38:25.977Z,94.72
2023-02-01T23:41:12.479Z,89.33
2023-02-01T23:43:57.618Z,92.75
2023-02-01T23:46:43.583Z,91.38
2023-02-01T23:49:28.772Z,95.38
2023-02-01T23:52:14.028Z,90.34
2023-02-01T23:54:59.229Z,91.73
2023-02-01T23:57:44.232Z,95.76
